Triplett, Missouri
Current Conditions -  °F | °C
As of 12:15 PM on Thursday 30 Oct 2014 (Local Time) from KVER Reporting Station
Broken Clouds Broken Clouds  
Wind Chill:   Ceiling: 9500
Heat Index: 10°   Visibility: 10mi
Dew Point:   Wind: 12mph
Humidity: 79%   Direction: 150°SSE
Pressure: 30.02"   Gusts: NA
Location:  39.5°N, 93.19°W
Report Text: KVER 301715Z AUTO 15010KT 10SM SCT029 SCT045 BKN095 10/06 A3002 RMK AO2 T00990064
Loading
Personal Weather Stations






























Interactive Weather Map
Tropical Storm Tracking
New forecast layout! Learn more

10-Day Weather Forecast

Advertisements
Track Severe Weather on mobile